Time;durP1;ratioP1;P1;durP2;ratioP2;P2;SDS_P1;SDS_P2;PMS_P1;PMS_P2;Temp;Humidity;BMP_temperature;BMP_pressure;BME280_temperature;BME280_humidity;BME280_pressure;Samples;Min_cycle;Max_cycle;Signal;HPM_P1;HPM_P2
2022/05/01 00:00:19;;;;;;;17.80;9.90;;;7.60;94.00;;;;;;5084725;28;20222;-78
2022/05/01 00:02:48;;;;;;;13.37;10.10;;;7.50;94.00;;;;;;5082208;28;20231;-77
2022/05/01 00:05:15;;;;;;;16.70;10.60;;;7.50;94.40;;;;;;5080468;28;20242;-78
2022/05/01 00:07:42;;;;;;;15.83;10.07;;;7.40;94.50;;;;;;5080162;28;20227;-78
2022/05/01 00:10:10;;;;;;;15.37;9.47;;;7.40;94.50;;;;;;5081005;28;20226;-78
2022/05/01 00:12:37;;;;;;;15.10;10.37;;;7.40;94.80;;;;;;5085225;28;20226;-78
2022/05/01 00:15:06;;;;;;;16.40;10.07;;;7.30;94.70;;;;;;5083959;28;20309;-78
2022/05/01 00:17:33;;;;;;;14.10;9.43;;;7.30;94.90;;;;;;5079537;28;20680;-80
2022/05/01 00:20:01;;;;;;;17.00;10.77;;;7.30;95.00;;;;;;5082377;28;20305;-80
2022/05/01 00:22:28;;;;;;;19.40;11.50;;;7.30;95.30;;;;;;5082318;28;20222;-79
2022/05/01 00:24:54;;;;;;;15.73;10.17;;;7.30;95.50;;;;;;5094962;28;20283;-79
2022/05/01 00:27:22;;;;;;;16.07;10.60;;;7.30;95.60;;;;;;5083359;28;20220;-79
2022/05/01 00:29:49;;;;;;;15.63;10.23;;;7.30;95.50;;;;;;5078207;28;20661;-80
2022/05/01 00:32:16;;;;;;;16.47;10.43;;;7.30;95.50;;;;;;5080306;28;20590;-78
2022/05/01 00:37:28;;;;;;;14.27;9.83;;;7.30;95.50;;;;;;5080100;28;20894;-78
2022/05/01 00:39:55;;;;;;;16.13;9.93;;;7.20;95.50;;;;;;5081006;28;20254;-78
2022/05/01 00:42:22;;;;;;;17.80;10.60;;;7.20;95.90;;;;;;5079372;28;20290;-78
2022/05/01 00:44:49;;;;;;;14.43;10.17;;;7.20;95.50;;;;;;5083088;28;20230;-78
2022/05/01 00:47:17;;;;;;;14.03;10.13;;;7.10;95.70;;;;;;5081889;28;20241;-78
2022/05/01 00:49:43;;;;;;;13.57;10.50;;;7.10;95.80;;;;;;5076467;28;20222;-78
2022/05/01 00:52:12;;;;;;;16.97;9.77;;;7.00;95.80;;;;;;5081092;28;20226;-78
2022/05/01 00:54:44;;;;;;;13.83;9.80;;;6.90;96.10;;;;;;5079588;28;20226;-81
2022/05/01 00:57:11;;;;;;;17.43;10.53;;;6.90;96.20;;;;;;5076604;28;20227;-81
2022/05/01 00:59:41;;;;;;;15.67;10.83;;;6.80;96.00;;;;;;5080206;28;20555;-81
2022/05/01 01:02:08;;;;;;;15.17;10.53;;;6.70;96.10;;;;;;5077063;28;20559;-80
2022/05/01 01:04:35;;;;;;;15.60;10.70;;;6.60;96.30;;;;;;5079892;28;20225;-80
2022/05/01 01:07:03;;;;;;;17.13;10.87;;;6.60;96.40;;;;;;5078697;28;21150;-80
2022/05/01 01:09:31;;;;;;;14.57;10.90;;;6.60;96.30;;;;;;5083733;28;20233;-81
2022/05/01 01:14:44;;;;;;;17.57;11.57;;;6.40;96.70;;;;;;5078429;28;20218;-80
2022/05/01 01:17:11;;;;;;;14.50;10.50;;;6.40;96.60;;;;;;5076228;28;20218;-80
2022/05/01 01:19:38;;;;;;;14.80;10.93;;;6.30;96.70;;;;;;5080792;28;20223;-80
2022/05/01 01:22:08;;;;;;;16.23;10.50;;;6.30;96.70;;;;;;5081543;28;20446;-80
2022/05/01 01:24:37;;;;;;;17.43;10.80;;;6.20;97.00;;;;;;5077124;28;20242;-80
2022/05/01 01:27:06;;;;;;;16.23;10.80;;;6.20;96.90;;;;;;5076646;28;20223;-81
2022/05/01 01:32:19;;;;;;;16.97;10.67;;;6.10;97.10;;;;;;5080579;28;20870;-80
2022/05/01 01:34:50;;;;;;;15.47;10.50;;;6.00;97.10;;;;;;5077479;28;20233;-80
2022/05/01 01:37:20;;;;;;;20.03;11.10;;;6.00;97.40;;;;;;5073843;28;20252;-80
2022/05/01 01:39:47;;;;;;;13.93;11.30;;;6.00;97.40;;;;;;5079836;28;20253;-80
2022/05/01 01:42:15;;;;;;;16.23;11.17;;;6.00;97.40;;;;;;5079224;28;20222;-79
2022/05/01 01:44:43;;;;;;;14.30;11.23;;;5.90;97.50;;;;;;5081150;28;20245;-79
2022/05/01 01:47:13;;;;;;;16.23;11.10;;;5.90;97.50;;;;;;5076316;28;20767;-78
2022/05/01 01:49:39;;;;;;;15.23;11.17;;;5.80;97.80;;;;;;5076306;28;20775;-78
2022/05/01 01:52:07;;;;;;;18.47;11.13;;;5.80;97.70;;;;;;5081693;28;20318;-78
2022/05/01 01:54:35;;;;;;;20.40;11.30;;;5.80;97.70;;;;;;5075433;28;20737;-78
2022/05/01 01:57:01;;;;;;;15.60;11.33;;;5.80;97.60;;;;;;5082687;28;20219;-80
2022/05/01 01:59:28;;;;;;;16.80;11.30;;;5.70;97.60;;;;;;5078970;28;20306;-80
2022/05/01 02:01:55;;;;;;;17.53;11.87;;;5.70;97.90;;;;;;5078681;28;20222;-79
2022/05/01 02:04:23;;;;;;;17.17;11.33;;;5.70;97.80;;;;;;5080774;28;20302;-80
2022/05/01 02:06:50;;;;;;;15.60;11.27;;;5.60;98.00;;;;;;5082750;28;20737;-78
2022/05/01 02:09:18;;;;;;;15.50;11.37;;;5.60;98.10;;;;;;5076829;28;20270;-79
2022/05/01 02:11:46;;;;;;;16.40;11.50;;;5.60;98.20;;;;;;5078712;28;20316;-81
2022/05/01 02:14:13;;;;;;;16.43;11.23;;;5.60;98.40;;;;;;5080937;28;20226;-80
2022/05/01 02:16:40;;;;;;;20.00;12.03;;;5.60;98.50;;;;;;5082003;28;20308;-81
2022/05/01 02:19:07;;;;;;;17.33;11.43;;;5.60;98.40;;;;;;5083155;28;20875;-80
2022/05/01 02:21:35;;;;;;;16.53;11.83;;;5.60;98.70;;;;;;5082529;28;20324;-80
2022/05/01 02:24:03;;;;;;;18.13;11.70;;;5.70;98.90;;;;;;5082293;28;20889;-80
2022/05/01 02:26:30;;;;;;;16.60;11.77;;;5.70;98.90;;;;;;5084753;28;20240;-79
2022/05/01 02:28:59;;;;;;;14.07;10.83;;;5.80;98.90;;;;;;5085330;28;20252;-79
2022/05/01 02:31:26;;;;;;;13.57;10.37;;;5.80;99.10;;;;;;5082132;28;20230;-79
2022/05/01 02:33:53;;;;;;;16.07;11.13;;;5.90;99.00;;;;;;5082850;28;20226;-80
2022/05/01 02:36:20;;;;;;;13.67;10.40;;;5.90;99.00;;;;;;5077701;28;21094;-78
2022/05/01 02:38:47;;;;;;;16.03;10.90;;;6.00;99.10;;;;;;5079205;28;20404;-79
2022/05/01 02:41:14;;;;;;;17.67;11.40;;;6.00;99.00;;;;;;5077382;28;20798;-79
2022/05/01 02:43:41;;;;;;;18.50;11.43;;;6.10;99.00;;;;;;5079423;28;20238;-80
2022/05/01 02:46:09;;;;;;;14.63;10.37;;;6.10;98.90;;;;;;5079669;28;20233;-80
2022/05/01 02:48:36;;;;;;;13.63;10.20;;;6.10;99.10;;;;;;5078471;28;20226;-79
2022/05/01 02:51:04;;;;;;;18.27;11.30;;;6.20;99.00;;;;;;5081221;28;20229;-79
2022/05/01 02:53:32;;;;;;;16.57;10.17;;;6.20;98.90;;;;;;5079551;28;20286;-79
2022/05/01 02:56:00;;;;;;;17.33;11.13;;;6.20;98.90;;;;;;5071608;28;20229;-79
2022/05/01 02:58:27;;;;;;;14.10;10.37;;;6.20;98.90;;;;;;5074975;28;20230;-79
2022/05/01 03:00:54;;;;;;;15.27;10.77;;;6.30;99.00;;;;;;5082264;28;20882;-80
2022/05/01 03:03:23;;;;;;;15.63;11.10;;;6.30;99.10;;;;;;5070864;28;20228;-81
2022/05/01 03:05:51;;;;;;;15.10;10.70;;;6.30;99.20;;;;;;5082578;28;20336;-79
2022/05/01 03:08:18;;;;;;;15.93;10.37;;;6.30;99.00;;;;;;5073601;28;20587;-80
2022/05/01 03:10:46;;;;;;;15.40;10.70;;;6.40;98.90;;;;;;5081672;28;20225;-80
2022/05/01 03:13:13;;;;;;;15.43;9.37;;;6.40;98.90;;;;;;5081647;28;20249;-80
2022/05/01 03:15:39;;;;;;;15.40;10.40;;;6.40;98.80;;;;;;5078656;28;20227;-81
2022/05/01 03:23:39;;;;;;;14.73;10.10;;;6.40;98.90;;;;;;5079605;28;20236;-81
2022/05/01 03:26:06;;;;;;;16.97;10.70;;;6.40;98.80;;;;;;5080890;28;20226;-81
2022/05/01 03:28:33;;;;;;;18.43;10.17;;;6.40;99.00;;;;;;5079210;28;20266;-81
2022/05/01 03:31:00;;;;;;;13.50;9.27;;;6.40;99.10;;;;;;5072254;28;20238;-80
2022/05/01 03:33:27;;;;;;;15.03;10.00;;;6.40;99.20;;;;;;5079816;28;20893;-80
2022/05/01 03:35:57;;;;;;;13.93;10.07;;;6.40;99.20;;;;;;5078184;28;20230;-82
2022/05/01 03:38:24;;;;;;;13.80;10.20;;;6.40;99.30;;;;;;5083883;28;20234;-81
2022/05/01 03:40:51;;;;;;;16.67;10.07;;;6.40;99.20;;;;;;5078824;28;20226;-81
2022/05/01 03:43:18;;;;;;;16.20;8.97;;;6.40;99.30;;;;;;5086468;28;20502;-80
2022/05/01 03:45:45;;;;;;;16.67;9.53;;;6.40;99.30;;;;;;5077659;28;20230;-78
2022/05/01 03:48:12;;;;;;;15.87;9.33;;;6.40;99.20;;;;;;5081891;28;20300;-78
2022/05/01 03:50:39;;;;;;;16.33;10.37;;;6.50;99.30;;;;;;5086991;28;20226;-79
2022/05/01 03:53:08;;;;;;;12.83;9.03;;;6.50;99.30;;;;;;5084012;28;20223;-79
2022/05/01 03:55:36;;;;;;;18.13;9.53;;;6.50;99.40;;;;;;5083098;28;20245;-78
2022/05/01 03:58:04;;;;;;;13.50;8.93;;;6.50;99.40;;;;;;5080272;28;20308;-78
2022/05/01 04:00:31;;;;;;;13.30;8.73;;;6.50;99.40;;;;;;5084582;28;21086;-79
2022/05/01 04:02:57;;;;;;;13.67;8.57;;;6.50;99.30;;;;;;5083606;28;20222;-79
2022/05/01 04:05:24;;;;;;;14.30;9.43;;;6.50;99.30;;;;;;5076588;28;20223;-79
2022/05/01 04:07:51;;;;;;;15.87;9.57;;;6.50;99.30;;;;;;5083348;28;20247;-79
2022/05/01 04:10:19;;;;;;;14.67;9.00;;;6.50;99.40;;;;;;5085662;28;20238;-78
2022/05/01 04:12:46;;;;;;;14.00;9.23;;;6.50;99.40;;;;;;5078474;28;20242;-79
2022/05/01 04:15:14;;;;;;;15.87;9.30;;;6.50;99.40;;;;;;5084427;28;20598;-79
2022/05/01 04:17:42;;;;;;;14.27;9.20;;;6.50;99.50;;;;;;5080574;28;20305;-79
2022/05/01 04:20:12;;;;;;;14.77;9.10;;;6.60;99.60;;;;;;5086570;28;20218;-78
2022/05/01 04:22:40;;;;;;;14.93;9.30;;;6.60;99.80;;;;;;5095352;28;20752;-77
2022/05/01 04:25:14;;;;;;;14.33;9.47;;;6.60;99.70;;;;;;5082123;28;20316;-80
2022/05/01 04:27:42;;;;;;;14.70;9.17;;;6.60;99.80;;;;;;5081144;28;20227;-79
2022/05/01 04:30:10;;;;;;;19.80;8.97;;;6.60;99.70;;;;;;5081440;28;20255;-80
2022/05/01 04:32:48;;;;;;;13.07;8.53;;;6.60;99.80;;;;;;5080452;28;20246;-80
2022/05/01 04:35:20;;;;;;;15.93;8.63;;;6.70;99.90;;;;;;5082811;28;20673;-79
2022/05/01 04:37:47;;;;;;;18.60;10.00;;;6.70;99.90;;;;;;5084427;28;20360;-80
2022/05/01 04:40:15;;;;;;;15.93;8.97;;;6.70;99.80;;;;;;5085790;28;20230;-80
2022/05/01 04:42:43;;;;;;;11.50;8.97;;;6.70;99.80;;;;;;5086103;28;20242;-79
2022/05/01 04:45:11;;;;;;;13.60;9.10;;;6.80;99.80;;;;;;5085249;28;20234;-79
2022/05/01 04:47:38;;;;;;;14.00;8.57;;;6.80;99.90;;;;;;5084409;28;20230;-80
2022/05/01 04:50:06;;;;;;;15.27;9.13;;;6.80;99.70;;;;;;5077885;28;20283;-79
2022/05/01 04:52:36;;;;;;;12.80;8.60;;;6.80;99.90;;;;;;5084151;28;21124;-78
2022/05/01 04:55:04;;;;;;;15.40;7.80;;;6.90;99.90;;;;;;5081818;28;21221;-78
2022/05/01 04:57:33;;;;;;;15.27;10.37;;;6.90;99.80;;;;;;5081263;28;20237;-78
2022/05/01 05:00:01;;;;;;;12.57;8.27;;;6.90;99.90;;;;;;5079880;28;20850;-79
2022/05/01 05:02:36;;;;;;;17.50;8.87;;;6.90;99.80;;;;;;5084307;28;20384;-78
2022/05/01 05:05:03;;;;;;;14.60;9.03;;;6.90;99.80;;;;;;5075816;28;20719;-78
2022/05/01 05:07:31;;;;;;;11.67;7.97;;;7.00;99.70;;;;;;5080858;28;20329;-80
2022/05/01 05:09:57;;;;;;;13.30;8.07;;;7.00;99.70;;;;;;5079538;28;20834;-79
2022/05/01 05:12:23;;;;;;;11.17;8.10;;;7.00;99.70;;;;;;5077249;28;20226;-78
2022/05/01 05:14:51;;;;;;;12.97;8.00;;;7.00;99.60;;;;;;5080418;28;20246;-78
2022/05/01 05:17:20;;;;;;;12.43;8.47;;;7.00;99.40;;;;;;5076545;28;20603;-78
2022/05/01 05:19:47;;;;;;;13.17;8.40;;;7.00;99.40;;;;;;5082568;28;20219;-77
2022/05/01 05:22:14;;;;;;;13.43;7.90;;;7.00;99.40;;;;;;5077585;28;20223;-80
2022/05/01 05:24:42;;;;;;;14.90;8.60;;;7.00;99.40;;;;;;5076484;28;20230;-78
2022/05/01 05:27:08;;;;;;;13.80;8.77;;;6.90;99.50;;;;;;5080200;28;20296;-79
2022/05/01 05:29:35;;;;;;;13.20;8.33;;;6.90;99.50;;;;;;5084222;28;20313;-77
2022/05/01 05:32:03;;;;;;;13.67;8.17;;;6.90;99.50;;;;;;5078315;28;20728;-79
2022/05/01 05:34:31;;;;;;;14.00;8.23;;;6.80;99.40;;;;;;5083298;28;20227;-78
2022/05/01 05:36:58;;;;;;;14.13;8.20;;;6.80;99.60;;;;;;5077525;28;20226;-79
2022/05/01 05:39:25;;;;;;;11.97;8.07;;;6.80;99.70;;;;;;5081720;28;20251;-79
2022/05/01 05:41:51;;;;;;;13.90;8.63;;;6.80;99.70;;;;;;5085201;28;20324;-78
2022/05/01 05:44:18;;;;;;;11.07;8.03;;;6.80;99.70;;;;;;5081760;28;20250;-78
2022/05/01 05:46:45;;;;;;;12.83;7.77;;;6.80;99.80;;;;;;5072226;28;20227;-79
2022/05/01 05:49:12;;;;;;;11.07;8.23;;;6.80;99.90;;;;;;5085861;28;20801;-79
2022/05/01 05:51:40;;;;;;;11.90;7.80;;;6.80;99.90;;;;;;5085535;28;20260;-79
2022/05/01 05:54:06;;;;;;;12.00;6.97;;;6.90;99.90;;;;;;5081243;28;20861;-79
2022/05/01 05:56:34;;;;;;;8.87;5.80;;;6.90;99.90;;;;;;5081471;28;20879;-79
2022/05/01 05:59:00;;;;;;;12.77;6.43;;;7.00;99.90;;;;;;5080857;28;20786;-77
2022/05/01 06:01:30;;;;;;;11.50;6.00;;;7.00;99.90;;;;;;5074782;28;20231;-78
2022/05/01 06:03:57;;;;;;;10.97;5.93;;;7.00;99.90;;;;;;5081111;28;20236;-79
2022/05/01 06:06:23;;;;;;;10.50;5.80;;;7.10;99.90;;;;;;5085159;28;20289;-79
2022/05/01 06:08:51;;;;;;;10.50;5.50;;;7.20;99.90;;;;;;5079420;28;20233;-77
2022/05/01 06:11:18;;;;;;;7.13;4.67;;;7.30;99.90;;;;;;5079439;28;20291;-79
2022/05/01 06:13:45;;;;;;;8.50;4.67;;;7.30;99.90;;;;;;5071960;28;20229;-78
2022/05/01 06:16:12;;;;;;;9.67;4.67;;;7.40;99.80;;;;;;5078288;28;20812;-78
2022/05/01 06:18:38;;;;;;;7.47;4.60;;;7.50;99.90;;;;;;5078846;28;20232;-78
2022/05/01 06:21:05;;;;;;;10.53;4.67;;;7.60;99.90;;;;;;5077113;28;20291;-78
2022/05/01 06:23:32;;;;;;;8.50;4.80;;;7.70;99.90;;;;;;5080697;28;20238;-77
2022/05/01 06:26:03;;;;;;;9.13;5.67;;;7.80;99.90;;;;;;5074804;28;20263;-77
2022/05/01 06:28:30;;;;;;;9.17;4.03;;;8.00;99.90;;;;;;5078027;28;20225;-77
2022/05/01 06:31:01;;;;;;;9.07;4.27;;;8.20;99.70;;;;;;5077953;28;20259;-78
2022/05/01 06:33:29;;;;;;;10.20;3.90;;;8.30;99.60;;;;;;5073417;28;20223;-78
2022/05/01 06:35:57;;;;;;;8.20;4.53;;;8.50;99.30;;;;;;5078264;28;20234;-78
2022/05/01 06:38:24;;;;;;;5.67;3.30;;;8.70;99.30;;;;;;5077311;28;20223;-78
2022/05/01 06:40:51;;;;;;;6.03;3.60;;;8.80;99.10;;;;;;5080270;28;20249;-78
2022/05/01 06:43:20;;;;;;;6.70;3.27;;;9.00;98.70;;;;;;5075052;28;20266;-78
2022/05/01 06:45:47;;;;;;;4.63;3.07;;;9.20;98.30;;;;;;5079370;28;20848;-77
2022/05/01 06:48:14;;;;;;;5.50;3.27;;;9.30;97.90;;;;;;5079586;28;20246;-77
2022/05/01 06:50:41;;;;;;;7.00;2.60;;;9.50;97.60;;;;;;5076585;28;20242;-78
2022/05/01 06:53:08;;;;;;;9.57;2.70;;;9.70;97.30;;;;;;5077348;28;20226;-78
2022/05/01 06:55:35;;;;;;;5.73;2.50;;;9.90;97.00;;;;;;5080804;28;20226;-80
2022/05/01 06:58:02;;;;;;;4.23;2.10;;;10.00;96.60;;;;;;5071924;28;20883;-78
2022/05/01 07:00:30;;;;;;;5.63;4.10;;;10.10;96.30;;;;;;5073147;28;20239;-78
2022/05/01 07:02:58;;;;;;;5.37;2.73;;;10.20;95.90;;;;;;5076512;28;20300;-78
2022/05/01 07:05:25;;;;;;;7.97;2.97;;;10.30;95.50;;;;;;5078726;28;20241;-78
2022/05/01 07:07:54;;;;;;;4.60;2.20;;;10.40;95.40;;;;;;5079180;28;20219;-80
2022/05/01 07:10:23;;;;;;;5.00;2.77;;;10.60;95.20;;;;;;5079603;28;20232;-78
2022/05/01 07:12:51;;;;;;;5.37;2.63;;;10.90;95.20;;;;;;5084460;28;20841;-79
2022/05/01 07:15:20;;;;;;;6.80;3.17;;;11.40;95.00;;;;;;5082571;28;20230;-78
2022/05/01 07:17:48;;;;;;;5.07;2.70;;;11.90;95.00;;;;;;5082865;28;20225;-80
2022/05/01 07:20:15;;;;;;;7.07;3.33;;;12.50;93.90;;;;;;5082302;28;20717;-77
2022/05/01 07:22:42;;;;;;;5.57;3.30;;;13.20;93.80;;;;;;5083979;28;20662;-78
2022/05/01 07:25:09;;;;;;;5.20;2.83;;;13.80;93.30;;;;;;5078752;28;20295;-78
2022/05/01 07:27:36;;;;;;;5.40;3.00;;;14.40;92.60;;;;;;5082235;28;20953;-77
2022/05/01 07:30:04;;;;;;;5.07;2.60;;;15.10;91.80;;;;;;5084118;28;20650;-77
2022/05/01 07:32:30;;;;;;;6.57;2.70;;;15.60;90.80;;;;;;5083652;28;20610;-77
2022/05/01 07:34:58;;;;;;;6.83;2.50;;;16.10;88.90;;;;;;5086119;28;20273;-77
2022/05/01 07:37:26;;;;;;;2.43;1.73;;;16.60;87.40;;;;;;5082705;28;20226;-77
2022/05/01 07:39:54;;;;;;;4.00;1.77;;;16.90;84.90;;;;;;5078342;28;20222;-78
2022/05/01 07:42:22;;;;;;;8.37;1.90;;;17.10;82.20;;;;;;5081796;28;20234;-79
2022/05/01 07:44:49;;;;;;;7.17;2.07;;;17.20;80.60;;;;;;5077514;28;20252;-78
2022/05/01 07:47:15;;;;;;;5.03;2.03;;;17.20;80.50;;;;;;5079119;28;20227;-77
2022/05/01 07:49:42;;;;;;;4.33;1.97;;;17.50;80.40;;;;;;5077998;28;20330;-78
2022/05/01 07:52:10;;;;;;;4.70;2.03;;;17.80;81.10;;;;;;5082159;28;20861;-78
2022/05/01 07:54:37;;;;;;;3.10;2.20;;;18.20;79.80;;;;;;5078210;28;20233;-78
2022/05/01 07:57:05;;;;;;;5.70;1.92;;;18.60;77.80;;;;;;5081854;28;20562;-79
2022/05/01 07:59:32;;;;;;;4.40;2.03;;;18.80;75.80;;;;;;5077374;28;20292;-77
2022/05/01 08:01:58;;;;;;;4.07;1.95;;;19.00;74.50;;;;;;5078151;28;20238;-76
2022/05/01 08:04:31;;;;;;;4.65;1.90;;;19.00;73.30;;;;;;5075626;28;20228;-77
2022/05/01 08:06:59;;;;;;;4.50;2.47;;;19.00;72.00;;;;;;5082476;28;21882;-78
2022/05/01 08:09:27;;;;;;;6.93;2.25;;;19.00;71.90;;;;;;5081338;28;20242;-77
2022/05/01 08:11:55;;;;;;;3.08;1.70;;;19.00;71.80;;;;;;5077951;28;20233;-78
2022/05/01 08:14:22;;;;;;;4.50;2.10;;;19.00;72.00;;;;;;5076242;28;20234;-78
2022/05/01 08:16:49;;;;;;;3.78;1.67;;;19.10;72.00;;;;;;5079713;28;20245;-78
2022/05/01 08:22:01;;;;;;;3.03;1.40;;;19.40;70.80;;;;;;5070467;28;20219;-78
2022/05/01 08:24:29;;;;;;;2.70;1.40;;;19.80;69.60;;;;;;5072177;28;20340;-78
2022/05/01 08:26:56;;;;;;;4.22;1.60;;;20.10;66.70;;;;;;5079488;28;20230;-78
2022/05/01 08:29:25;;;;;;;4.97;1.70;;;20.30;66.60;;;;;;5074507;28;20218;-78
2022/05/01 08:31:54;;;;;;;2.13;1.15;;;20.40;65.60;;;;;;5075029;28;20659;-77
2022/05/01 08:34:21;;;;;;;2.97;1.58;;;20.60;65.30;;;;;;5074659;28;20695;-77
2022/05/01 08:36:47;;;;;;;3.85;1.60;;;20.80;64.80;;;;;;5075807;28;20225;-77
2022/05/01 08:39:14;;;;;;;3.53;1.38;;;21.00;63.40;;;;;;5078011;28;20218;-77
2022/05/01 08:41:42;;;;;;;4.00;1.55;;;21.10;62.80;;;;;;5073408;28;20577;-78
2022/05/01 08:44:13;;;;;;;2.78;1.30;;;21.10;61.10;;;;;;5073031;28;20223;-78
2022/05/01 08:46:55;;;;;;;1.83;1.50;;;21.00;61.00;;;;;;5073294;28;20340;-77
2022/05/01 08:49:22;;;;;;;4.22;1.58;;;20.90;61.80;;;;;;5073271;28;20227;-78
2022/05/01 08:51:51;;;;;;;4.95;1.70;;;20.90;62.00;;;;;;5076617;28;20222;-78
2022/05/01 08:54:19;;;;;;;5.53;1.70;;;21.00;61.70;;;;;;5071066;28;20238;-78
2022/05/01 08:56:48;;;;;;;3.45;1.60;;;21.10;61.80;;;;;;5074827;28;20226;-78
2022/05/01 08:59:17;;;;;;;3.47;1.42;;;21.20;60.30;;;;;;5072428;28;20245;-78
2022/05/01 09:01:45;;;;;;;2.25;1.40;;;21.30;59.10;;;;;;5071314;28;20222;-79
2022/05/01 09:04:14;;;;;;;1.90;1.20;;;21.20;58.40;;;;;;5075440;28;20235;-77
2022/05/01 09:06:42;;;;;;;4.80;1.50;;;21.00;56.90;;;;;;5077206;28;20238;-77
2022/05/01 09:09:11;;;;;;;2.67;1.23;;;20.80;57.40;;;;;;5072578;28;20227;-77
2022/05/01 09:14:27;;;;;;;3.83;1.63;;;20.70;57.70;;;;;;5068000;28;20305;-78
2022/05/01 09:17:11;;;;;;;2.53;1.30;;;20.70;57.50;;;;;;5076466;28;20218;-78
2022/05/01 09:19:38;;;;;;;2.40;1.25;;;20.90;56.90;;;;;;5079291;28;20218;-77
2022/05/01 09:22:05;;;;;;;2.13;1.33;;;21.20;57.90;;;;;;5073611;28;20227;-79
2022/05/01 09:24:32;;;;;;;4.57;1.30;;;21.50;57.20;;;;;;5075027;28;20233;-79
2022/05/01 09:27:01;;;;;;;2.05;1.20;;;21.90;55.90;;;;;;5076516;28;20564;-79
2022/05/01 09:29:34;;;;;;;2.17;1.40;;;22.40;55.30;;;;;;5068293;28;20238;-78
2022/05/01 09:32:03;;;;;;;2.38;1.42;;;22.70;53.80;;;;;;5066844;28;20326;-79
2022/05/01 09:34:32;;;;;;;2.78;1.30;;;23.10;53.80;;;;;;5074059;28;20227;-78
2022/05/01 09:37:00;;;;;;;2.13;1.20;;;23.30;53.50;;;;;;5076409;28;20222;-78
2022/05/01 09:39:31;;;;;;;2.20;1.20;;;23.50;52.20;;;;;;5071878;28;20231;-78
2022/05/01 09:42:14;;;;;;;2.85;1.40;;;23.60;50.90;;;;;;5092196;28;20309;-78
2022/05/01 09:44:43;;;;;;;2.05;1.13;;;23.60;49.40;;;;;;5073011;28;20852;-78
2022/05/01 09:47:11;;;;;;;1.45;0.90;;;23.60;49.70;;;;;;5077817;28;22119;-78
2022/05/01 09:49:49;;;;;;;3.70;1.30;;;23.50;49.20;;;;;;5070753;28;20231;-78
2022/05/01 09:52:17;;;;;;;2.03;1.30;;;23.30;48.20;;;;;;5070133;28;20468;-79
2022/05/01 09:55:02;;;;;;;1.35;1.00;;;23.20;48.30;;;;;;5076728;28;20229;-78
2022/05/01 09:57:30;;;;;;;3.55;1.30;;;23.10;47.60;;;;;;5071640;28;20230;-79
2022/05/01 09:59:58;;;;;;;3.03;1.20;;;23.20;48.70;;;;;;5074800;28;20313;-79
2022/05/01 10:02:29;;;;;;;1.67;0.90;;;23.30;47.40;;;;;;5074003;28;20703;-78
2022/05/01 10:05:02;;;;;;;1.42;1.00;;;23.50;47.20;;;;;;5069018;28;20222;-77
2022/05/01 10:07:35;;;;;;;1.50;0.90;;;23.70;46.80;;;;;;5074280;28;20234;-78
2022/05/01 10:10:03;;;;;;;1.80;0.90;;;23.90;46.90;;;;;;5067014;28;20230;-79
2022/05/01 10:12:36;;;;;;;2.08;0.98;;;24.10;46.90;;;;;;5073007;28;20280;-77
2022/05/01 10:15:06;;;;;;;2.55;1.00;;;24.10;45.40;;;;;;5073003;28;21113;-78
2022/05/01 10:17:34;;;;;;;1.88;1.08;;;24.10;45.20;;;;;;5075391;28;20231;-78
2022/05/01 10:20:02;;;;;;;1.00;0.90;;;24.00;46.00;;;;;;5073453;28;20287;-78
2022/05/01 10:22:30;;;;;;;1.88;0.90;;;24.10;45.50;;;;;;5074260;28;20230;-78
2022/05/01 10:24:57;;;;;;;1.90;0.93;;;24.20;45.60;;;;;;5072320;28;20268;-78
2022/05/01 10:27:34;;;;;;;1.50;0.60;;;24.40;44.80;;;;;;5074200;28;20725;-79
2022/05/01 10:33:15;;;;;;;1.92;0.80;;;24.70;43.40;;;;;;5069257;28;20228;-78
2022/05/01 10:35:59;;;;;;;1.40;0.90;;;24.90;43.60;;;;;;5069847;28;20223;-78
2022/05/01 10:38:39;;;;;;;0.85;0.70;;;25.00;41.70;;;;;;5068138;28;20222;-78
2022/05/01 10:41:07;;;;;;;1.40;0.80;;;24.80;42.50;;;;;;5069757;28;20272;-79
2022/05/01 10:43:36;;;;;;;2.83;1.10;;;24.50;42.80;;;;;;5072761;28;20330;-78
2022/05/01 10:46:25;;;;;;;2.67;1.50;;;24.00;42.50;;;;;;5073977;28;20237;-80
2022/05/01 10:48:55;;;;;;;4.20;1.20;;;23.40;42.20;;;;;;5082517;28;20700;-79
2022/05/01 10:51:52;;;;;;;3.00;1.10;;;22.70;42.30;;;;;;5079417;28;20238;-78
2022/05/01 10:54:38;;;;;;;1.85;1.05;;;22.00;43.00;;;;;;5078644;28;20226;-78
2022/05/01 10:57:11;;;;;;;2.72;1.05;;;21.30;43.70;;;;;;5082216;28;20287;-79
2022/05/01 10:59:42;;;;;;;1.00;0.70;;;20.80;44.00;;;;;;5080208;28;20223;-78
2022/05/01 11:02:38;;;;;;;1.92;0.88;;;20.50;44.60;;;;;;5075997;28;20321;-79
2022/05/01 11:05:07;;;;;;;1.65;1.00;;;20.10;44.90;;;;;;5075994;28;20242;-79
2022/05/01 11:07:35;;;;;;;2.28;0.90;;;19.80;45.20;;;;;;5081566;28;20234;-79
2022/05/01 11:10:06;;;;;;;1.70;0.70;;;19.60;45.70;;;;;;5084540;28;21062;-79
2022/05/01 11:12:34;;;;;;;1.45;1.20;;;19.30;45.10;;;;;;5083148;27;20571;-78
2022/05/01 11:15:06;;;;;;;1.97;0.90;;;19.20;45.90;;;;;;5076123;28;20253;-79
2022/05/01 11:17:56;;;;;;;3.47;1.27;;;19.00;45.60;;;;;;5083092;28;20723;-80
2022/05/01 11:20:34;;;;;;;1.80;1.20;;;18.80;45.80;;;;;;5079556;28;20222;-79
2022/05/01 11:23:26;;;;;;;2.95;1.10;;;18.70;46.20;;;;;;5077626;28;20264;-79
2022/05/01 11:26:09;;;;;;;2.13;1.10;;;18.50;46.20;;;;;;5079740;28;20229;-80
2022/05/01 11:28:43;;;;;;;1.40;0.80;;;18.50;46.60;;;;;;5078363;28;20523;-79
2022/05/01 11:31:44;;;;;;;1.97;0.80;;;18.40;46.70;;;;;;5078731;28;20225;-79
2022/05/01 11:34:36;;;;;;;1.33;0.70;;;18.30;46.20;;;;;;5082084;28;20226;-79
2022/05/01 11:37:06;;;;;;;1.13;0.90;;;18.40;47.50;;;;;;5082642;28;20316;-78
2022/05/01 11:40:07;;;;;;;2.43;0.87;;;18.40;47.50;;;;;;5078589;28;20313;-79
2022/05/01 11:42:37;;;;;;;1.13;0.83;;;18.50;47.30;;;;;;5081378;28;20241;-78
2022/05/01 11:45:10;;;;;;;2.60;0.87;;;18.60;47.20;;;;;;5077442;28;20565;-79
2022/05/01 11:47:37;;;;;;;1.70;1.00;;;18.70;47.30;;;;;;5081430;28;20227;-80
2022/05/01 11:50:07;;;;;;;1.83;0.88;;;18.80;47.60;;;;;;5078800;28;20234;-79
2022/05/01 11:52:37;;;;;;;1.52;0.80;;;18.90;47.20;;;;;;5082273;28;20746;-78
2022/05/01 11:55:08;;;;;;;2.20;0.87;;;19.00;47.00;;;;;;5075412;28;20238;-78
2022/05/01 12:03:11;;;;;;;4.60;1.30;;;19.30;47.00;;;;;;5072042;28;20253;-78
2022/05/01 12:05:47;;;;;;;1.80;0.88;;;19.40;46.50;;;;;;5067936;28;20231;-79
2022/05/01 12:08:14;;;;;;;1.90;1.00;;;19.50;45.70;;;;;;5081971;28;20233;-78
2022/05/01 12:10:41;;;;;;;1.33;0.93;;;19.60;45.90;;;;;;5077796;28;20237;-80
2022/05/01 12:13:22;;;;;;;2.10;1.25;;;19.70;45.60;;;;;;5074623;28;20318;-78
2022/05/01 12:15:50;;;;;;;2.08;1.15;;;19.70;45.10;;;;;;5077183;28;20508;-78
2022/05/01 12:18:17;;;;;;;1.80;1.00;;;19.90;45.70;;;;;;5073231;28;20223;-80
2022/05/01 12:20:46;;;;;;;2.83;1.20;;;20.00;45.60;;;;;;5075483;28;20222;-79
2022/05/01 12:23:17;;;;;;;2.10;1.00;;;20.10;45.10;;;;;;5075699;28;20312;-80
2022/05/01 12:25:46;;;;;;;1.13;0.82;;;20.20;45.80;;;;;;5073305;28;20484;-80
2022/05/01 12:28:15;;;;;;;2.33;1.00;;;20.20;45.50;;;;;;5074098;28;20231;-79
2022/05/01 12:30:43;;;;;;;1.55;1.10;;;20.30;45.20;;;;;;5075553;28;20226;-79
2022/05/01 12:33:19;;;;;;;1.70;1.15;;;20.30;44.90;;;;;;5077749;28;20223;-79
2022/05/01 12:35:58;;;;;;;1.60;1.00;;;20.10;44.70;;;;;;5079729;28;20616;-80
2022/05/01 12:38:28;;;;;;;2.65;1.20;;;19.90;44.80;;;;;;5078935;28;20238;-79
2022/05/01 12:43:52;;;;;;;3.70;1.38;;;19.70;45.50;;;;;;5076443;28;20230;-79
2022/05/01 12:46:24;;;;;;;3.15;1.10;;;19.50;45.70;;;;;;5081216;28;20237;-79
2022/05/01 12:48:52;;;;;;;1.88;1.05;;;19.40;45.70;;;;;;5079249;28;20649;-79
2022/05/01 12:51:20;;;;;;;2.33;1.10;;;19.20;45.70;;;;;;5071286;28;20731;-80
2022/05/01 12:53:47;;;;;;;2.13;1.10;;;19.00;45.90;;;;;;5073954;28;20239;-79
2022/05/01 12:56:20;;;;;;;2.13;1.30;;;18.90;45.90;;;;;;5073924;28;20318;-79
2022/05/01 12:58:47;;;;;;;3.38;1.30;;;18.80;46.20;;;;;;5076350;28;20235;-78
2022/05/01 13:01:26;;;;;;;1.30;1.10;;;18.60;46.20;;;;;;5076454;28;20831;-80
2022/05/01 13:03:53;;;;;;;3.50;1.20;;;18.50;46.00;;;;;;5078695;28;20250;-80
2022/05/01 13:06:23;;;;;;;1.60;1.10;;;18.40;46.00;;;;;;5074034;28;20235;-79
2022/05/01 13:09:09;;;;;;;1.52;1.05;;;18.30;46.10;;;;;;5073309;28;20236;-78
2022/05/01 13:11:36;;;;;;;2.50;1.23;;;18.30;46.50;;;;;;5075744;28;20527;-79
2022/05/01 13:14:05;;;;;;;3.67;2.00;;;18.20;46.60;;;;;;5074455;28;20229;-80
2022/05/01 13:16:44;;;;;;;2.73;1.20;;;18.20;46.60;;;;;;5070978;28;20246;-79
2022/05/01 13:19:13;;;;;;;2.60;1.13;;;18.20;46.40;;;;;;5079242;28;20241;-79
2022/05/01 13:21:44;;;;;;;3.53;1.17;;;18.10;46.60;;;;;;5073641;28;20231;-80
2022/05/01 13:24:14;;;;;;;3.20;1.20;;;18.10;46.70;;;;;;5076941;28;20778;-79
2022/05/01 13:26:41;;;;;;;1.10;0.90;;;18.10;46.90;;;;;;5079990;28;20240;-80